createdAt,value
2019-02-19T00:02:13.150Z,72.82
2019-02-19T00:04:43.903Z,72.68
2019-02-19T00:07:14.552Z,72.57
2019-02-19T00:09:45.410Z,72.57
2019-02-19T00:12:16.172Z,72.40
2019-02-19T00:14:46.921Z,72.29
2019-02-19T00:17:17.780Z,72.09
2019-02-19T00:19:48.525Z,71.60
2019-02-19T00:22:20.231Z,71.58
2019-02-19T00:24:51.059Z,71.47
2019-02-19T00:27:21.694Z,71.50
2019-02-19T00:29:52.563Z,71.42
2019-02-19T00:32:23.434Z,71.50
2019-02-19T00:34:54.154Z,71.22
2019-02-19T00:37:24.807Z,71.37
2019-02-19T00:39:55.566Z,71.91
2019-02-19T00:42:26.334Z,72.26
2019-02-19T00:44:57.394Z,72.54
2019-02-19T00:47:28.150Z,72.47
2019-02-19T00:49:58.903Z,72.73
2019-02-19T00:52:29.432Z,72.29
2019-02-19T00:54:59.512Z,72.18
2019-02-19T00:57:30.037Z,72.24
2019-02-19T01:00:00.791Z,72.19
2019-02-19T01:02:31.530Z,72.10
2019-02-19T01:05:02.404Z,72.23
2019-02-19T01:07:33.156Z,72.73
2019-02-19T01:10:04.629Z,72.83
2019-02-19T01:12:35.099Z,72.59
2019-02-19T01:15:08.668Z,72.65
2019-02-19T01:17:39.016Z,72.48
2019-02-19T01:20:10.200Z,71.96
2019-02-19T01:22:41.974Z,71.48
2019-02-19T01:25:13.017Z,71.93
2019-02-19T01:27:43.790Z,72.08
2019-02-19T01:30:14.441Z,72.07
2019-02-19T01:32:45.276Z,72.17
2019-02-19T01:35:16.053Z,72.46
2019-02-19T01:37:45.908Z,72.39
2019-02-19T01:40:16.434Z,72.90
2019-02-19T01:42:47.169Z,73.15
2019-02-19T01:45:17.838Z,73.64
2019-02-19T01:47:49.409Z,73.86
2019-02-19T01:50:20.042Z,73.45
2019-02-19T01:52:50.123Z,73.37
2019-02-19T01:55:20.650Z,73.68
2019-02-19T01:57:51.280Z,73.71
2019-02-19T02:00:22.035Z,73.87
2019-02-19T02:02:52.896Z,73.95
2019-02-19T02:05:23.667Z,74.08
2019-02-19T02:07:54.315Z,74.24
2019-02-19T02:10:25.051Z,74.29
2019-02-19T02:12:55.926Z,74.21
2019-02-19T02:15:26.680Z,74.25
2019-02-19T02:17:57.538Z,74.23
2019-02-19T02:20:28.271Z,74.14
2019-02-19T02:22:59.946Z,73.17
2019-02-19T02:25:30.820Z,72.16
2019-02-19T02:28:01.576Z,72.71
2019-02-19T02:30:32.331Z,73.51
2019-02-19T02:33:03.183Z,73.75
2019-02-19T02:35:33.940Z,74.00
2019-02-19T02:38:04.589Z,73.99
2019-02-19T02:40:35.324Z,74.01
2019-02-19T02:43:06.080Z,73.88
2019-02-19T02:45:36.731Z,73.75
2019-02-19T02:48:07.405Z,73.49
2019-02-19T02:50:38.258Z,73.42
2019-02-19T02:53:08.995Z,72.89
2019-02-19T02:55:39.645Z,72.65
2019-02-19T02:58:10.314Z,72.33
2019-02-19T03:00:41.048Z,72.46
2019-02-19T03:03:11.907Z,73.27
2019-02-19T03:05:47.279Z,73.35
2019-02-19T03:08:17.932Z,73.70
2019-02-19T03:10:48.787Z,73.99
2019-02-19T03:13:19.520Z,73.96
2019-02-19T03:15:50.306Z,73.88
2019-02-19T03:18:20.945Z,73.59
2019-02-19T03:20:51.806Z,73.20
2019-02-19T03:23:23.460Z,73.12
2019-02-19T03:25:54.333Z,73.33
2019-02-19T03:28:24.964Z,73.56
2019-02-19T03:30:55.636Z,73.83
2019-02-19T03:33:26.581Z,73.84
2019-02-19T03:35:59.784Z,74.16
2019-02-19T03:38:30.760Z,74.42
2019-02-19T03:41:00.402Z,73.87
2019-02-19T03:43:30.938Z,73.45
2019-02-19T03:46:01.674Z,73.05
2019-02-19T03:48:32.324Z,73.34
2019-02-19T03:51:03.018Z,73.94
2019-02-19T03:53:33.860Z,74.38
2019-02-19T03:56:04.614Z,74.50
2019-02-19T03:58:35.237Z,74.48
2019-02-19T04:01:05.900Z,74.52
2019-02-19T04:42:38.529Z,74.27
2019-02-19T04:45:46.440Z,73.69
2019-02-19T04:48:17.302Z,73.20
2019-02-19T04:50:48.053Z,73.57
2019-02-19T04:53:18.684Z,73.81
2019-02-19T04:55:49.561Z,74.17
2019-02-19T04:58:20.313Z,74.18
2019-02-19T05:00:50.944Z,74.26
2019-02-19T05:03:21.616Z,74.13
2019-02-19T05:05:52.472Z,73.69
2019-02-19T05:08:23.226Z,73.09
2019-02-19T05:10:53.984Z,72.70
2019-02-19T05:13:24.745Z,72.48
2019-02-19T05:15:56.920Z,72.22
2019-02-19T05:18:27.674Z,71.39
2019-02-19T05:20:58.308Z,70.46
2019-02-19T05:23:28.273Z,69.16
2019-02-19T05:25:59.729Z,68.85
2019-02-19T05:28:30.488Z,69.74
2019-02-19T05:31:00.227Z,69.01
2019-02-19T05:33:32.082Z,68.57
2019-02-19T05:36:02.951Z,68.06
2019-02-19T05:38:36.574Z,67.92
2019-02-19T05:41:07.199Z,67.58
2019-02-19T05:43:37.166Z,67.15
2019-02-19T05:46:07.582Z,67.94
2019-02-19T05:48:38.336Z,67.90
2019-02-19T05:51:09.215Z,67.36
2019-02-19T05:53:40.067Z,67.60
2019-02-19T05:56:10.823Z,67.61
2019-02-19T05:58:41.456Z,66.23
2019-02-19T06:01:12.329Z,65.77
2019-02-19T06:03:43.064Z,66.59
2019-02-19T06:06:13.835Z,65.42
2019-02-19T06:08:46.106Z,66.06
2019-02-19T06:11:16.981Z,65.61
2019-02-19T06:13:47.718Z,65.25
2019-02-19T06:16:18.387Z,64.98
2019-02-19T06:18:49.241Z,65.11
2019-02-19T06:21:21.531Z,65.56
2019-02-19T06:23:52.896Z,65.06
2019-02-19T06:26:24.347Z,65.55
2019-02-19T06:28:57.721Z,65.54
2019-02-19T06:31:27.287Z,65.18
2019-02-19T06:33:58.063Z,65.04
2019-02-19T06:36:28.693Z,64.11
2019-02-19T06:38:59.567Z,64.41
2019-02-19T06:41:30.303Z,64.30
2019-02-19T06:44:01.073Z,64.18
2019-02-19T06:46:31.711Z,63.65
2019-02-19T06:49:02.690Z,63.06
2019-02-19T06:51:33.440Z,62.43
2019-02-19T06:54:04.177Z,61.57
2019-02-19T06:56:35.048Z,60.29
2019-02-19T06:59:05.906Z,60.12
2019-02-19T07:01:56.295Z,59.99
2019-02-19T07:04:28.462Z,58.12
2019-02-19T07:06:59.012Z,58.50
2019-02-19T07:09:29.903Z,58.09
2019-02-19T07:12:00.645Z,57.70
2019-02-19T07:14:31.391Z,58.10
2019-02-19T07:17:01.921Z,56.81
2019-02-19T07:19:32.797Z,53.57
2019-02-19T07:22:03.432Z,53.09
2019-02-19T07:24:34.204Z,54.04
2019-02-19T07:27:05.758Z,54.25
2019-02-19T07:29:36.537Z,52.49
2019-02-19T07:32:07.284Z,52.44
2019-02-19T07:34:38.138Z,51.47
2019-02-19T07:37:08.896Z,52.76
2019-02-19T07:39:39.527Z,52.64
2019-02-19T07:42:10.279Z,52.57
2019-02-19T07:44:41.155Z,51.65
2019-02-19T07:47:12.011Z,52.83
2019-02-19T07:49:41.859Z,52.22
2019-02-19T07:52:12.396Z,52.69
2019-02-19T07:54:43.153Z,53.06
2019-02-19T07:57:13.990Z,53.43
2019-02-19T07:59:44.740Z,53.83
2019-02-19T08:02:14.923Z,52.92
2019-02-19T08:04:45.447Z,51.73
2019-02-19T08:07:16.101Z,49.78
2019-02-19T08:09:46.050Z,49.21
2019-02-19T08:12:16.463Z,47.64
2019-02-19T08:14:46.645Z,46.10
2019-02-19T08:17:17.150Z,46.70
2019-02-19T08:19:48.858Z,46.39
2019-02-19T08:22:19.803Z,46.51
2019-02-19T08:24:50.555Z,46.37
2019-02-19T08:27:22.333Z,46.40
2019-02-19T08:29:53.087Z,46.25
2019-02-19T08:32:23.842Z,47.05
2019-02-19T08:34:54.575Z,47.62
2019-02-19T08:37:24.648Z,46.52
2019-02-19T08:39:55.062Z,47.34
2019-02-19T08:42:25.245Z,46.53
2019-02-19T08:44:55.649Z,46.46
2019-02-19T08:47:26.529Z,46.64
2019-02-19T08:49:58.075Z,47.60
2019-02-19T08:52:28.646Z,47.87
2019-02-19T08:54:59.401Z,47.62
2019-02-19T08:57:30.152Z,48.08
2019-02-19T09:00:01.015Z,47.40
2019-02-19T09:02:31.868Z,46.18
2019-02-19T09:05:02.499Z,46.39
2019-02-19T09:07:32.467Z,46.23
2019-02-19T09:10:02.879Z,43.13
2019-02-19T09:12:33.064Z,43.05
2019-02-19T09:15:03.571Z,43.42
2019-02-19T09:17:33.652Z,42.01
2019-02-19T09:20:05.199Z,43.64
2019-02-19T09:22:35.639Z,41.78
2019-02-19T09:25:08.424Z,42.54
2019-02-19T09:27:39.239Z,43.84
2019-02-19T09:30:12.387Z,41.69
2019-02-19T09:32:42.859Z,43.71
2019-02-19T09:35:12.917Z,44.87
2019-02-19T09:37:43.441Z,40.01
2019-02-19T09:40:13.503Z,41.00
2019-02-19T09:42:44.012Z,39.72
2019-02-19T09:45:13.979Z,39.54
2019-02-19T09:47:44.514Z,38.19
2019-02-19T09:50:15.249Z,40.23
2019-02-19T09:52:45.227Z,40.02
2019-02-19T09:55:15.861Z,40.63
2019-02-19T09:57:45.919Z,40.11
2019-02-19T10:00:16.322Z,39.81
2019-02-19T10:02:46.402Z,38.01
2019-02-19T10:05:17.240Z,37.52
2019-02-19T10:07:47.969Z,37.86
2019-02-19T10:10:19.058Z,37.07
2019-02-19T10:12:49.298Z,37.64
2019-02-19T10:15:19.353Z,38.17
2019-02-19T10:17:49.754Z,37.05
2019-02-19T10:20:20.431Z,35.87
2019-02-19T10:22:51.060Z,35.65
2019-02-19T10:25:21.142Z,34.82
2019-02-19T10:27:52.668Z,36.65
2019-02-19T10:30:23.347Z,36.24
2019-02-19T10:32:54.406Z,35.11
2019-02-19T10:35:24.352Z,34.07
2019-02-19T10:37:54.886Z,33.15
2019-02-19T10:40:24.838Z,33.57
2019-02-19T10:42:55.265Z,34.09
2019-02-19T10:45:26.950Z,33.75
2019-02-19T10:47:57.185Z,33.06
2019-02-19T10:50:27.248Z,33.04
2019-02-19T10:52:57.772Z,33.99
2019-02-19T10:55:28.525Z,32.82
2019-02-19T10:57:58.384Z,33.03
2019-02-19T11:00:28.910Z,32.12
2019-02-19T11:02:59.562Z,31.70
2019-02-19T11:05:29.413Z,32.68
2019-02-19T11:07:59.822Z,31.92
2019-02-19T11:10:30.573Z,32.17
2019-02-19T11:13:00.836Z,33.16
2019-02-19T11:15:31.491Z,32.87
2019-02-19T11:18:01.449Z,32.87
2019-02-19T11:20:31.973Z,34.36
2019-02-19T11:23:02.139Z,32.67
2019-02-19T11:25:32.668Z,32.81
2019-02-19T11:28:03.536Z,33.41
2019-02-19T11:30:33.371Z,33.04
2019-02-19T11:33:05.128Z,32.58
2019-02-19T11:35:35.354Z,32.87
2019-02-19T11:38:05.324Z,34.35
2019-02-19T11:40:35.856Z,33.24
2019-02-19T11:43:05.715Z,32.58
2019-02-19T11:45:36.238Z,33.33
2019-02-19T11:48:06.671Z,33.29
2019-02-19T11:50:36.753Z,32.46
2019-02-19T11:53:07.260Z,33.84
2019-02-19T11:55:38.187Z,33.88
2019-02-19T11:58:08.763Z,33.41
2019-02-19T12:00:40.276Z,33.85
2019-02-19T12:03:10.782Z,33.72
2019-02-19T12:05:41.435Z,32.79
2019-02-19T12:08:12.003Z,33.49
2019-02-19T12:10:42.063Z,33.79
2019-02-19T12:13:12.589Z,32.78
2019-02-19T12:15:42.549Z,33.27
2019-02-19T12:18:12.949Z,33.83
2019-02-19T12:20:42.821Z,33.73
2019-02-19T12:23:13.351Z,33.73
2019-02-19T12:25:43.420Z,34.07
2019-02-19T12:28:14.843Z,34.27
2019-02-19T12:30:45.513Z,33.46
2019-02-19T12:33:16.268Z,34.52
2019-02-19T12:35:46.217Z,34.19
2019-02-19T12:38:16.753Z,33.68
2019-02-19T12:40:46.817Z,33.31
2019-02-19T12:43:17.338Z,35.29
2019-02-19T12:45:47.299Z,34.27
2019-02-19T12:48:17.837Z,33.24
2019-02-19T12:50:48.659Z,33.40
2019-02-19T12:53:18.528Z,33.70
2019-02-19T12:55:49.064Z,33.98
2019-02-19T12:58:19.025Z,34.42
2019-02-19T13:00:49.547Z,34.39
2019-02-19T13:03:19.610Z,34.88
2019-02-19T13:05:50.033Z,34.84
2019-02-19T13:08:20.096Z,35.31
2019-02-19T13:10:50.622Z,35.27
2019-02-19T13:13:21.273Z,34.59
2019-02-19T13:15:51.232Z,34.38
2019-02-19T13:18:21.654Z,34.12
2019-02-19T13:20:51.515Z,34.05
2019-02-19T13:23:22.036Z,34.26
2019-02-19T13:25:52.099Z,34.89
2019-02-19T13:28:22.705Z,34.69
2019-02-19T13:30:53.362Z,35.15
2019-02-19T13:33:24.134Z,35.41
2019-02-19T13:35:54.886Z,35.26
2019-02-19T13:38:25.744Z,35.59
2019-02-19T13:40:55.807Z,36.69
2019-02-19T13:43:26.309Z,37.52
2019-02-19T13:45:58.603Z,39.23
2019-02-19T13:48:28.582Z,38.33
2019-02-19T13:50:59.104Z,38.43
2019-02-19T13:53:30.590Z,39.18
2019-02-19T13:56:02.030Z,39.28
2019-02-19T13:58:32.478Z,38.77
2019-02-19T14:01:02.340Z,41.33
2019-02-19T14:03:32.869Z,42.54
2019-02-19T14:06:02.836Z,42.23
2019-02-19T14:08:33.354Z,43.03
2019-02-19T14:11:03.905Z,43.28
2019-02-19T14:13:33.969Z,44.61
2019-02-19T14:16:09.201Z,44.07
2019-02-19T14:18:48.340Z,43.89
2019-02-19T14:21:35.666Z,44.20
2019-02-19T14:24:24.300Z,44.34
2019-02-19T14:27:13.070Z,44.01
2019-02-19T14:29:58.347Z,43.79
2019-02-19T14:32:33.600Z,43.93
2019-02-19T14:35:25.114Z,44.04
2019-02-19T14:38:13.646Z,44.27
2019-02-19T14:40:48.999Z,44.34
2019-02-19T14:43:39.823Z,44.58
2019-02-19T14:46:14.750Z,44.93
2019-02-19T14:49:02.397Z,44.57
2019-02-19T14:51:34.588Z,44.78
2019-02-19T14:54:06.870Z,45.50
2019-02-19T14:56:42.103Z,46.14
2019-02-19T14:59:17.460Z,46.08
2019-02-19T15:01:52.642Z,46.12
2019-02-19T15:04:27.785Z,46.67
2019-02-19T15:07:06.187Z,46.51
2019-02-19T15:09:41.441Z,46.41
2019-02-19T15:12:13.755Z,46.67
2019-02-19T15:15:04.023Z,46.82
2019-02-19T15:17:44.901Z,47.17
2019-02-19T15:20:33.070Z,48.48
2019-02-19T15:23:08.397Z,49.88
2019-02-19T15:29:19.732Z,51.17
2019-02-19T15:35:07.492Z,52.07
2019-02-19T15:37:48.497Z,52.66
2019-02-19T15:40:26.515Z,53.08
2019-02-19T15:42:58.900Z,54.15
2019-02-19T15:45:31.187Z,54.44
2019-02-19T15:48:21.679Z,54.94
2019-02-19T15:51:02.949Z,54.81
2019-02-19T15:53:41.171Z,55.01
2019-02-19T15:56:20.842Z,55.49
2019-02-19T15:58:59.041Z,55.65
2019-02-19T16:01:49.862Z,55.33
2019-02-19T16:04:34.101Z,55.32
2019-02-19T16:07:22.459Z,55.14
2019-02-19T16:09:54.756Z,55.43
2019-02-19T16:12:32.968Z,55.71
2019-02-19T16:15:20.518Z,56.08
2019-02-19T16:18:02.074Z,56.60
2019-02-19T16:20:37.349Z,57.01
2019-02-19T16:23:09.613Z,57.09
2019-02-19T16:25:56.834Z,57.68
2019-02-19T16:28:29.041Z,57.70
2019-02-19T16:31:13.078Z,57.43
2019-02-19T16:33:46.502Z,57.26
2019-02-19T16:36:37.102Z,57.63
2019-02-19T16:39:25.850Z,58.30
2019-02-19T16:42:11.167Z,58.91
2019-02-19T16:44:55.687Z,58.28
2019-02-19T16:47:30.331Z,58.73
2019-02-19T16:50:07.655Z,58.88
2019-02-19T16:52:42.658Z,58.42
2019-02-19T16:55:17.629Z,59.20
2019-02-19T16:57:49.713Z,59.14
2019-02-19T17:00:22.570Z,59.68
2019-02-19T17:03:01.789Z,59.60
2019-02-19T17:05:49.595Z,59.35
2019-02-19T17:08:40.081Z,59.32
2019-02-19T17:11:12.367Z,59.98
2019-02-19T17:13:58.025Z,59.29
2019-02-19T17:16:24.409Z,58.64
2019-02-19T17:18:59.441Z,59.50
2019-02-19T17:21:40.524Z,59.42
2019-02-19T17:24:29.275Z,57.39
2019-02-19T17:27:12.412Z,57.08
2019-02-19T17:29:49.964Z,57.07
2019-02-19T17:32:27.006Z,57.20
2019-02-19T17:35:16.590Z,57.01
2019-02-19T17:38:14.201Z,57.63
2019-02-19T17:40:38.264Z,57.53
2019-02-19T17:43:15.958Z,57.31
2019-02-19T17:45:51.116Z,57.43
2019-02-19T17:48:28.819Z,57.82
2019-02-19T17:51:13.408Z,57.00
2019-02-19T17:53:58.080Z,55.88
2019-02-19T17:56:36.576Z,56.45
2019-02-19T17:59:14.568Z,56.21
2019-02-19T18:01:46.876Z,56.59
2019-02-19T18:04:19.062Z,57.26
2019-02-19T18:06:54.191Z,57.07
2019-02-19T18:09:42.865Z,57.73
2019-02-19T18:12:18.118Z,58.40
2019-02-19T18:14:59.611Z,58.91
2019-02-19T18:17:50.309Z,59.16
2019-02-19T18:20:21.062Z,59.23
2019-02-19T18:22:51.566Z,59.02
2019-02-19T18:25:21.959Z,59.37
2019-02-19T18:27:52.797Z,59.47
2019-02-19T18:30:24.081Z,59.77
2019-02-19T18:32:55.016Z,59.75
2019-02-19T18:35:27.122Z,60.34
2019-02-19T18:37:57.876Z,60.11
2019-02-19T18:40:28.627Z,60.14
2019-02-19T18:42:59.567Z,60.12
2019-02-19T18:45:30.341Z,60.29
2019-02-19T18:48:01.095Z,60.45
2019-02-19T18:50:31.949Z,60.54
2019-02-19T18:53:02.712Z,60.50
2019-02-19T18:55:33.446Z,60.51
2019-02-19T18:58:03.519Z,60.34
2019-02-19T19:00:34.045Z,60.06
2019-02-19T19:03:04.208Z,59.94
2019-02-19T19:05:34.717Z,60.50
2019-02-19T19:08:05.389Z,60.83
2019-02-19T19:10:36.119Z,60.67
2019-02-19T19:13:06.995Z,61.23
2019-02-19T19:15:37.748Z,61.14
2019-02-19T19:18:08.401Z,60.33
2019-02-19T19:20:39.268Z,60.05
2019-02-19T19:23:10.020Z,60.00
2019-02-19T19:25:40.764Z,59.30
2019-02-19T19:28:11.604Z,59.39
2019-02-19T19:30:42.478Z,58.77
2019-02-19T19:33:13.230Z,57.51
2019-02-19T19:35:44.887Z,58.11
2019-02-19T19:38:15.350Z,57.65
2019-02-19T19:40:46.003Z,58.34
2019-02-19T19:43:16.843Z,59.21
2019-02-19T19:45:47.614Z,58.86
2019-02-19T19:48:18.365Z,59.73
2019-02-19T19:50:49.017Z,60.14
2019-02-19T19:53:19.873Z,60.26
2019-02-19T19:55:50.629Z,60.87
2019-02-19T19:58:21.382Z,61.63
2019-02-19T20:00:52.241Z,61.98
2019-02-19T20:03:23.094Z,62.50
2019-02-19T20:05:53.850Z,62.90
2019-02-19T20:08:24.501Z,62.75
2019-02-19T20:10:55.236Z,62.61
2019-02-19T20:13:26.111Z,62.95
2019-02-19T20:15:56.864Z,63.32
2019-02-19T20:18:27.718Z,62.10
2019-02-19T20:21:00.397Z,62.22
2019-02-19T20:23:31.172Z,63.04
2019-02-19T20:26:01.804Z,61.98
2019-02-19T20:28:35.368Z,61.59
2019-02-19T20:31:05.893Z,61.67
2019-02-19T20:33:35.742Z,61.38
2019-02-19T20:36:07.193Z,61.53
2019-02-19T20:38:38.046Z,61.38
2019-02-19T20:41:08.800Z,61.04
2019-02-19T20:43:39.669Z,61.84
2019-02-19T20:46:10.521Z,62.01
2019-02-19T20:48:41.351Z,62.84
2019-02-19T20:51:12.121Z,61.52
2019-02-19T20:53:42.774Z,61.78
2019-02-19T20:56:13.509Z,61.48
2019-02-19T20:58:44.270Z,60.68
2019-02-19T21:01:15.041Z,56.64
2019-02-19T21:03:45.689Z,55.58
2019-02-19T21:06:16.423Z,56.77
2019-02-19T21:08:47.198Z,55.58
2019-02-19T21:11:17.826Z,55.93
2019-02-19T21:13:47.905Z,55.32
2019-02-19T21:16:18.422Z,55.13
2019-02-19T21:18:49.086Z,55.98
2019-02-19T21:21:19.940Z,56.30
2019-02-19T21:23:50.675Z,55.33
2019-02-19T21:26:21.449Z,56.25
2019-02-19T21:28:52.097Z,56.45
2019-02-19T21:31:22.958Z,55.85
2019-02-19T21:33:53.716Z,56.66
2019-02-19T21:36:25.364Z,56.12
2019-02-19T21:38:56.135Z,56.30
2019-02-19T21:41:26.788Z,56.56
2019-02-19T21:43:57.745Z,56.12
2019-02-19T21:46:28.502Z,56.56
2019-02-19T21:48:59.235Z,57.16
2019-02-19T21:51:29.785Z,57.00
2019-02-19T21:54:00.659Z,57.40
2019-02-19T21:56:31.415Z,57.90
2019-02-19T21:59:02.168Z,57.59
2019-02-19T22:01:32.817Z,58.15
2019-02-19T22:04:03.658Z,58.78
2019-02-19T22:06:34.428Z,58.26
2019-02-19T22:09:05.934Z,58.45
2019-02-19T22:11:36.226Z,58.69
2019-02-19T22:14:06.998Z,58.68
2019-02-19T22:16:37.752Z,58.71
2019-02-19T22:19:08.433Z,58.52
2019-02-19T22:21:40.775Z,58.67
2019-02-19T22:24:16.129Z,58.52
2019-02-19T22:26:46.798Z,58.59
2019-02-19T22:29:17.543Z,58.53
2019-02-19T22:31:48.404Z,59.24
2019-02-19T22:34:19.163Z,59.07
2019-02-19T22:36:50.957Z,59.10
2019-02-19T22:39:21.271Z,59.30
2019-02-19T22:41:51.235Z,60.05
2019-02-19T22:44:21.956Z,60.18
2019-02-19T22:46:52.727Z,60.14
2019-02-19T22:49:23.588Z,59.79
2019-02-19T22:51:54.322Z,60.00
2019-02-19T22:54:26.624Z,58.84
2019-02-19T22:56:57.286Z,58.65
2019-02-19T22:59:28.117Z,58.82
2019-02-19T23:02:00.405Z,58.62
2019-02-19T23:04:31.469Z,58.79
2019-02-19T23:07:02.219Z,58.02
2019-02-19T23:09:34.505Z,58.61
2019-02-19T23:12:05.159Z,58.60
2019-02-19T23:14:37.158Z,58.74
2019-02-19T23:17:07.807Z,58.97
2019-02-19T23:19:38.660Z,57.93
2019-02-19T23:22:09.419Z,58.18
2019-02-19T23:24:40.172Z,58.65
2019-02-19T23:27:11.050Z,58.07
2019-02-19T23:29:41.884Z,58.09
2019-02-19T23:32:12.646Z,57.94
2019-02-19T23:34:43.305Z,58.63
2019-02-19T23:37:15.066Z,58.67
2019-02-19T23:39:45.821Z,58.35
2019-02-19T23:42:16.676Z,58.40
2019-02-19T23:44:47.515Z,59.00
2019-02-19T23:47:18.186Z,58.95
2019-02-19T23:49:49.028Z,58.30
2019-02-19T23:52:19.676Z,59.00
2019-02-19T23:54:50.431Z,59.62
2019-02-19T23:57:21.096Z,60.04
2019-02-19T23:59:51.963Z,59.77
